map of FFU home
FFU - Airport
Location
City:  Futaleufú, Los Lagos, Chile
Name:Futaleufú Airport
ICAO:SCFT
IATA:FFU

Details
Type:Airport (Aerodrome, Airfield)
Latitude:43°11'21"S (-43.189166)
Longitude:71°51'04"W (-71.851111)
Datum:WGS 1984
Elevation:1148 ft (350 m)
Variation:8.34°E (WMM2015 magnetic declination)
-0.11° annual change
Runways:1
Longest:3200 × 59 ft (975 × 18 m), paved

Time
Time Zone:UTC-4 (DST-3)
Local Time:

Weather
METAR:SCFT 161800Z AUTO 28016KT CAVOK 15/01 Q1015

Related Locations
Nearby:
Farthest:ZMKB: 12375 mi / 19916 km
Khanbogd [Khanbumbat Airport (Oyu Tolgoi Airport, Oyut Airport)], 053, MN

Find:

   beyond  
but within

Other Information
Maps:
NOTAMs:
Links:
Sources:

  
  • flag of Chile
  • flag of Los Lagos
  

Sectional Chart

Flight Planning
at skyvector.com

Satellite Image

Google Maps Satellite view

 

Copyright © 2004-2018 Karl L. Swartz. All rights reserved.
The Great Circle Mapper name and logo are trademarks of the Great Circle Mapper.
All other trademarks mentioned herein belong to their respective owners.
Please see credits for attibutions and further copyright information.

  Follow gcmap on Facebook Follow gcmap on Twitter Follow gcmap on Google+ GCmap on LinkedIn

hCard Microformat

Geo Microformat